Time;durP1;ratioP1;P1;durP2;ratioP2;P2;SDS_P1;SDS_P2;PMS_P1;PMS_P2;Temp;Humidity;BMP_temperature;BMP_pressure;BME280_temperature;BME280_humidity;BME280_pressure;Samples;Min_cycle;Max_cycle;Signal;HPM_P1;HPM_P2
2021/10/29 00:00:34;;;;;;;13.33;7.70;;;10.90;1.00;;;;;;5074057;28;20212;-62
2021/10/29 00:03:01;;;;;;;14.27;9.13;;;10.90;1.00;;;;;;5073898;28;20221;-62
2021/10/29 00:05:28;;;;;;;13.00;9.00;;;10.90;1.00;;;;;;5073560;28;20220;-62
2021/10/29 00:07:55;;;;;;;12.83;8.53;;;10.90;1.00;;;;;;5073645;28;20205;-62
2021/10/29 00:10:22;;;;;;;12.43;8.43;;;10.90;1.00;;;;;;5073634;28;20275;-62
2021/10/29 00:12:49;;;;;;;13.90;8.63;;;10.80;1.00;;;;;;5073735;28;20256;-62
2021/10/29 00:15:16;;;;;;;12.77;8.67;;;10.80;1.00;;;;;;5073306;28;20213;-61
2021/10/29 00:17:44;;;;;;;14.17;7.80;;;10.80;1.00;;;;;;5073748;28;20251;-61
2021/10/29 00:20:12;;;;;;;11.50;8.67;;;10.70;1.00;;;;;;5073545;28;20266;-62
2021/10/29 00:22:40;;;;;;;15.10;9.57;;;10.70;1.00;;;;;;5073411;28;20275;-62
2021/10/29 00:25:07;;;;;;;11.43;8.17;;;10.70;1.00;;;;;;5073148;28;20217;-61
2021/10/29 00:27:34;;;;;;;12.70;9.03;;;10.60;1.00;;;;;;5072505;28;20212;-61
2021/10/29 00:30:00;;;;;;;14.50;8.97;;;10.50;1.00;;;;;;5073261;28;20677;-62
2021/10/29 00:32:27;;;;;;;14.00;9.33;;;10.50;1.00;;;;;;5073296;28;20260;-62
2021/10/29 00:34:55;;;;;;;16.10;9.30;;;10.50;1.00;;;;;;5072857;28;20204;-62
2021/10/29 00:37:22;;;;;;;16.07;9.40;;;10.50;1.00;;;;;;5073057;28;20208;-62
2021/10/29 00:39:49;;;;;;;15.93;9.67;;;10.40;1.00;;;;;;5073451;28;20296;-62
2021/10/29 00:42:16;;;;;;;13.70;9.73;;;10.30;1.00;;;;;;5073197;28;20627;-62
2021/10/29 00:44:43;;;;;;;15.03;9.73;;;10.30;1.00;;;;;;5072916;28;20221;-61
2021/10/29 00:47:10;;;;;;;12.97;9.20;;;10.30;1.00;;;;;;5073022;28;20216;-62
2021/10/29 00:49:36;;;;;;;12.53;9.07;;;10.30;1.00;;;;;;5073078;28;20212;-62
2021/10/29 00:52:05;;;;;;;18.70;9.77;;;10.30;1.00;;;;;;5072522;28;20224;-61
2021/10/29 00:54:31;;;;;;;14.97;8.97;;;10.30;1.00;;;;;;5073043;28;20255;-62
2021/10/29 00:56:58;;;;;;;14.90;9.37;;;10.30;1.00;;;;;;5073016;28;20246;-62
2021/10/29 00:59:26;;;;;;;13.33;8.70;;;10.30;1.00;;;;;;5072807;28;20212;-62
2021/10/29 01:01:53;;;;;;;17.30;8.90;;;10.40;1.00;;;;;;5072659;28;20947;-62
2021/10/29 01:04:19;;;;;;;14.23;9.10;;;10.40;1.00;;;;;;5072413;28;20229;-63
2021/10/29 01:06:46;;;;;;;14.07;8.97;;;10.40;1.00;;;;;;5072165;28;20543;-62
2021/10/29 01:09:14;;;;;;;12.97;8.60;;;10.40;1.00;;;;;;5072761;28;20208;-62
2021/10/29 01:11:42;;;;;;;13.67;8.70;;;10.30;1.00;;;;;;5072631;28;20225;-62
2021/10/29 01:14:09;;;;;;;14.43;8.67;;;10.30;1.00;;;;;;5072412;28;20220;-62
2021/10/29 01:16:36;;;;;;;13.63;8.33;;;10.30;1.00;;;;;;5072126;28;20215;-62
2021/10/29 01:19:04;;;;;;;14.43;8.97;;;10.30;1.00;;;;;;5072244;28;20205;-62
2021/10/29 01:21:32;;;;;;;14.77;9.33;;;10.30;1.00;;;;;;5072214;28;20232;-62
2021/10/29 01:23:58;;;;;;;14.03;8.87;;;10.30;1.00;;;;;;5072476;28;20719;-62
2021/10/29 01:26:25;;;;;;;13.67;8.83;;;10.40;1.00;;;;;;5071990;28;20669;-62
2021/10/29 01:28:52;;;;;;;15.07;9.60;;;10.30;1.00;;;;;;5072372;28;20626;-62
2021/10/29 01:31:18;;;;;;;12.33;8.00;;;10.30;1.00;;;;;;5072131;28;20709;-62
2021/10/29 01:33:45;;;;;;;13.83;9.13;;;10.20;1.00;;;;;;5072038;28;20668;-62
2021/10/29 01:36:12;;;;;;;13.73;9.00;;;10.30;1.00;;;;;;5071876;28;20250;-61
2021/10/29 01:38:42;;;;;;;11.53;8.20;;;10.30;1.00;;;;;;5072020;28;20300;-62
2021/10/29 01:41:10;;;;;;;13.37;8.67;;;10.30;1.00;;;;;;5072106;28;20231;-62
2021/10/29 01:43:41;;;;;;;13.70;7.90;;;10.30;1.00;;;;;;5072205;28;20201;-62
2021/10/29 01:46:07;;;;;;;12.80;8.93;;;10.40;1.00;;;;;;5071552;28;20227;-62
2021/10/29 01:48:34;;;;;;;11.90;7.67;;;10.40;1.00;;;;;;5072171;28;20205;-60
2021/10/29 01:51:01;;;;;;;14.57;8.63;;;10.40;1.00;;;;;;5072062;28;20262;-62
2021/10/29 01:53:28;;;;;;;12.37;8.33;;;10.40;1.00;;;;;;5072046;28;20265;-62
2021/10/29 01:55:57;;;;;;;12.83;7.70;;;10.40;1.00;;;;;;5071735;28;20300;-62
2021/10/29 01:58:23;;;;;;;12.20;7.90;;;10.40;1.00;;;;;;5071943;28;20254;-62
2021/10/29 02:00:50;;;;;;;14.00;8.53;;;10.40;1.00;;;;;;5071795;28;20213;-62
2021/10/29 02:03:17;;;;;;;11.90;8.07;;;10.50;1.00;;;;;;5071965;28;20225;-61
2021/10/29 02:05:44;;;;;;;14.10;8.47;;;10.50;1.00;;;;;;5071466;28;20224;-62
2021/10/29 02:08:10;;;;;;;11.47;8.00;;;10.50;1.00;;;;;;5071985;28;20599;-62
2021/10/29 02:10:37;;;;;;;11.97;8.27;;;10.40;1.00;;;;;;5071719;28;20692;-61
2021/10/29 02:13:05;;;;;;;12.87;7.73;;;10.50;1.00;;;;;;5071927;28;20220;-62
2021/10/29 02:15:32;;;;;;;13.17;7.80;;;10.40;1.00;;;;;;5071241;28;20207;-62
2021/10/29 02:17:59;;;;;;;9.93;7.70;;;10.40;1.00;;;;;;5071995;28;20216;-61
2021/10/29 02:20:26;;;;;;;13.73;8.07;;;10.50;1.00;;;;;;5071546;28;20738;-62
2021/10/29 02:22:52;;;;;;;11.83;7.83;;;10.50;1.00;;;;;;5071730;28;20229;-62
2021/10/29 02:25:19;;;;;;;12.80;8.17;;;10.50;1.00;;;;;;5071351;28;20281;-61
2021/10/29 02:27:46;;;;;;;12.17;7.80;;;10.50;1.00;;;;;;5071462;28;20213;-62
2021/10/29 02:30:14;;;;;;;11.70;7.00;;;10.50;1.00;;;;;;5071901;28;20597;-61
2021/10/29 02:32:40;;;;;;;12.83;7.73;;;10.60;1.00;;;;;;5071635;28;20713;-62
2021/10/29 02:35:08;;;;;;;11.53;7.27;;;10.50;1.00;;;;;;5071386;28;20258;-63
2021/10/29 02:37:34;;;;;;;9.93;7.77;;;10.60;1.00;;;;;;5071561;28;20292;-62
2021/10/29 02:40:01;;;;;;;11.93;7.73;;;10.60;1.00;;;;;;5071605;28;20205;-62
2021/10/29 02:42:28;;;;;;;13.50;8.17;;;10.60;1.00;;;;;;5071339;28;20228;-62
2021/10/29 02:44:54;;;;;;;12.77;7.77;;;10.60;1.00;;;;;;5071271;28;20225;-62
2021/10/29 02:47:22;;;;;;;10.63;7.43;;;10.60;1.00;;;;;;5071605;28;20205;-63
2021/10/29 02:49:49;;;;;;;14.07;8.17;;;10.50;1.00;;;;;;5071408;28;20212;-62
2021/10/29 02:52:17;;;;;;;11.30;7.93;;;10.50;1.00;;;;;;5075115;28;20235;-62
2021/10/29 02:54:43;;;;;;;11.73;7.57;;;10.50;1.00;;;;;;5074811;28;20228;-62
2021/10/29 02:57:10;;;;;;;12.73;7.33;;;10.50;1.00;;;;;;5075042;28;20575;-62
2021/10/29 02:59:37;;;;;;;10.67;6.97;;;10.50;1.00;;;;;;5075171;28;20231;-62
2021/10/29 03:02:04;;;;;;;11.73;8.00;;;10.50;1.00;;;;;;5075116;28;20626;-62
2021/10/29 03:04:32;;;;;;;12.60;7.70;;;10.50;1.00;;;;;;5074687;28;20300;-62
2021/10/29 03:06:58;;;;;;;9.87;6.90;;;10.50;1.00;;;;;;5074857;28;20618;-62
2021/10/29 03:09:25;;;;;;;10.07;7.33;;;10.50;1.00;;;;;;5074846;28;20610;-62
2021/10/29 03:11:52;;;;;;;11.23;7.50;;;10.50;1.00;;;;;;5074655;28;20757;-62
2021/10/29 03:14:19;;;;;;;12.23;7.13;;;10.50;1.00;;;;;;5074981;28;20622;-62
2021/10/29 03:16:46;;;;;;;12.40;7.70;;;10.60;1.00;;;;;;5074479;28;20201;-63
2021/10/29 03:19:12;;;;;;;12.67;7.53;;;10.60;1.00;;;;;;5074891;28;20208;-62
2021/10/29 03:21:40;;;;;;;11.67;7.63;;;10.60;1.00;;;;;;5074557;28;20225;-63
2021/10/29 03:24:07;;;;;;;11.90;7.63;;;10.60;1.00;;;;;;5074566;28;20205;-62
2021/10/29 03:26:34;;;;;;;11.97;7.43;;;10.60;1.00;;;;;;5074432;28;20221;-62
2021/10/29 03:29:00;;;;;;;10.77;6.70;;;10.60;1.00;;;;;;5074587;28;20208;-61
2021/10/29 03:31:27;;;;;;;11.10;7.10;;;10.60;1.00;;;;;;5074493;28;20274;-62
2021/10/29 03:33:54;;;;;;;9.73;6.63;;;10.60;1.00;;;;;;5074432;28;20212;-62
2021/10/29 03:36:20;;;;;;;10.20;7.20;;;10.60;1.00;;;;;;5074132;28;20629;-62
2021/10/29 03:38:54;;;;;;;10.93;6.93;;;10.60;1.00;;;;;;5074109;28;20259;-62
2021/10/29 03:41:23;;;;;;;11.77;7.63;;;10.70;1.00;;;;;;5074240;28;20727;-63
2021/10/29 03:43:53;;;;;;;9.93;6.73;;;10.70;1.00;;;;;;5074286;28;20209;-62
2021/10/29 03:46:22;;;;;;;11.50;7.37;;;10.70;1.00;;;;;;5073716;28;20232;-62
2021/10/29 03:48:58;;;;;;;10.67;6.60;;;10.70;1.00;;;;;;5074117;28;20289;-62
2021/10/29 03:51:28;;;;;;;14.03;7.10;;;10.70;1.00;;;;;;5074065;28;20708;-61
2021/10/29 03:53:57;;;;;;;10.87;6.43;;;10.70;1.00;;;;;;5074222;28;20205;-62
2021/10/29 03:56:26;;;;;;;9.60;7.03;;;10.70;1.00;;;;;;5073611;28;20278;-62
2021/10/29 03:58:54;;;;;;;11.23;6.73;;;10.70;1.00;;;;;;5074057;28;20241;-62
2021/10/29 04:01:21;;;;;;;10.53;6.77;;;10.70;1.00;;;;;;5073576;28;20708;-62
2021/10/29 04:03:48;;;;;;;12.00;6.80;;;10.70;1.00;;;;;;5073605;28;20627;-61
2021/10/29 04:06:16;;;;;;;9.53;6.63;;;10.70;1.00;;;;;;5073507;28;20240;-62
2021/10/29 04:08:44;;;;;;;11.00;6.17;;;10.70;1.00;;;;;;5073917;28;20212;-62
2021/10/29 04:11:12;;;;;;;8.80;5.90;;;10.80;1.00;;;;;;5073623;28;20205;-62
2021/10/29 04:13:43;;;;;;;10.33;6.13;;;10.80;1.00;;;;;;5073733;28;20288;-62
2021/10/29 04:16:09;;;;;;;8.77;5.93;;;10.90;1.00;;;;;;5069729;28;20858;-63
2021/10/29 04:18:37;;;;;;;9.37;5.70;;;10.90;1.00;;;;;;5072830;28;20262;-62
2021/10/29 04:21:04;;;;;;;9.57;6.07;;;11.00;1.00;;;;;;5068953;28;20320;-62
2021/10/29 04:23:31;;;;;;;8.23;5.40;;;11.00;1.00;;;;;;5072641;28;20688;-63
2021/10/29 04:25:58;;;;;;;9.73;5.53;;;11.00;1.00;;;;;;5072583;28;20221;-63
2021/10/29 04:28:27;;;;;;;8.33;5.50;;;11.10;1.00;;;;;;5073144;28;20212;-62
2021/10/29 04:30:54;;;;;;;7.77;5.37;;;11.10;1.00;;;;;;5072749;28;20323;-62
2021/10/29 04:33:21;;;;;;;8.10;5.10;;;11.20;1.00;;;;;;5073004;28;20713;-61
2021/10/29 04:35:52;;;;;;;7.43;4.87;;;11.30;1.00;;;;;;5072749;28;20197;-63
2021/10/29 04:38:20;;;;;;;9.70;5.20;;;11.30;1.00;;;;;;5072911;28;20209;-62
2021/10/29 04:40:46;;;;;;;7.33;5.30;;;11.30;1.00;;;;;;5072806;28;20258;-62
2021/10/29 04:43:13;;;;;;;6.77;5.00;;;11.40;1.00;;;;;;5072974;28;20358;-62
2021/10/29 04:45:41;;;;;;;8.53;5.07;;;11.50;1.00;;;;;;5072320;28;20232;-63
2021/10/29 04:48:08;;;;;;;8.87;5.13;;;11.50;1.00;;;;;;5072712;28;20209;-63
2021/10/29 04:50:35;;;;;;;7.53;5.20;;;11.50;1.00;;;;;;5072650;28;20212;-62
2021/10/29 04:53:02;;;;;;;10.50;5.33;;;11.50;1.00;;;;;;5072826;28;20233;-62
2021/10/29 04:55:28;;;;;;;8.87;5.27;;;11.50;1.00;;;;;;5072378;28;20203;-63
2021/10/29 04:57:56;;;;;;;8.67;5.43;;;11.50;1.00;;;;;;5072272;28;20213;-63
2021/10/29 05:00:24;;;;;;;6.73;5.20;;;11.50;1.00;;;;;;5072759;28;20264;-63
2021/10/29 05:02:54;;;;;;;8.63;4.83;;;11.40;1.00;;;;;;5072577;28;20233;-62
2021/10/29 05:05:20;;;;;;;9.23;5.10;;;11.50;1.00;;;;;;5071938;28;20212;-63
2021/10/29 05:07:47;;;;;;;9.60;5.43;;;11.50;1.00;;;;;;5072242;28;20212;-62
2021/10/29 05:10:14;;;;;;;8.43;5.00;;;11.60;1.00;;;;;;5071551;28;20200;-62
2021/10/29 05:12:41;;;;;;;9.23;5.50;;;11.60;1.00;;;;;;5072202;28;20229;-62
2021/10/29 05:15:10;;;;;;;7.77;5.30;;;11.70;1.00;;;;;;5071906;28;20212;-62
2021/10/29 05:17:36;;;;;;;8.77;4.80;;;11.70;1.00;;;;;;5072303;28;20763;-63
2021/10/29 05:20:06;;;;;;;7.77;5.03;;;11.70;1.00;;;;;;5071211;28;20208;-61
2021/10/29 05:22:32;;;;;;;7.50;4.90;;;11.70;1.00;;;;;;5059291;28;20654;-61
2021/10/29 05:24:59;;;;;;;7.90;5.23;;;11.70;1.00;;;;;;5070274;28;20272;-61
2021/10/29 05:27:26;;;;;;;8.93;5.30;;;11.70;1.00;;;;;;5072003;28;20226;-60
2021/10/29 05:29:52;;;;;;;8.33;5.27;;;11.70;1.00;;;;;;5071833;28;20653;-62
2021/10/29 05:32:19;;;;;;;8.03;5.17;;;11.70;1.00;;;;;;5071915;28;20229;-61
2021/10/29 05:34:46;;;;;;;9.03;5.23;;;11.70;1.00;;;;;;5071446;28;20206;-60
2021/10/29 05:37:14;;;;;;;7.17;5.27;;;11.70;1.00;;;;;;5071684;28;20209;-60
2021/10/29 05:39:40;;;;;;;8.57;5.37;;;11.70;1.00;;;;;;5071747;28;20601;-60
2021/10/29 05:42:07;;;;;;;8.87;5.10;;;11.70;1.00;;;;;;5071626;28;20232;-61
2021/10/29 05:44:34;;;;;;;9.87;5.50;;;11.90;1.00;;;;;;5071422;28;20211;-61
2021/10/29 05:47:00;;;;;;;9.00;5.17;;;11.80;1.00;;;;;;5071849;28;20228;-63
2021/10/29 05:49:28;;;;;;;9.73;5.50;;;11.80;1.00;;;;;;5071660;28;20248;-64
2021/10/29 05:51:56;;;;;;;7.73;5.33;;;11.80;1.00;;;;;;5071562;28;20233;-64
2021/10/29 05:57:11;;;;;;;9.43;5.83;;;11.70;1.00;;;;;;5045337;28;20212;-62
2021/10/29 05:59:37;;;;;;;8.77;5.50;;;11.70;1.00;;;;;;5071636;28;20207;-63
2021/10/29 06:02:05;;;;;;;9.63;5.83;;;11.70;1.00;;;;;;5071687;28;20231;-62
2021/10/29 06:04:32;;;;;;;8.37;5.93;;;11.70;1.00;;;;;;5070801;28;20696;-63
2021/10/29 06:06:59;;;;;;;8.07;6.10;;;11.60;1.00;;;;;;5071440;28;20225;-60
2021/10/29 06:09:28;;;;;;;11.70;6.17;;;11.60;1.00;;;;;;5071593;28;20207;-60
2021/10/29 06:11:55;;;;;;;9.70;6.27;;;11.60;1.00;;;;;;5071209;28;20230;-61
2021/10/29 06:14:22;;;;;;;11.90;6.00;;;11.60;1.00;;;;;;5071221;28;20572;-60
2021/10/29 06:16:49;;;;;;;9.23;5.97;;;11.70;1.00;;;;;;5070876;28;20201;-59
2021/10/29 06:19:16;;;;;;;8.10;5.83;;;11.60;1.00;;;;;;5071159;28;20213;-60
2021/10/29 06:21:52;;;;;;;11.97;6.43;;;11.60;1.00;;;;;;5071056;28;20306;-61
2021/10/29 06:24:19;;;;;;;8.27;5.87;;;11.50;1.00;;;;;;5071064;28;20246;-62
2021/10/29 06:26:51;;;;;;;10.33;5.97;;;11.50;1.00;;;;;;5073919;28;20228;-62
2021/10/29 06:29:19;;;;;;;13.70;6.17;;;11.40;1.00;;;;;;5075279;28;20681;-62
2021/10/29 06:31:46;;;;;;;9.60;5.43;;;11.40;1.00;;;;;;5074989;28;20594;-59
2021/10/29 06:34:13;;;;;;;11.10;6.10;;;11.40;1.00;;;;;;5075140;28;20254;-59
2021/10/29 06:36:40;;;;;;;10.97;5.90;;;11.30;1.00;;;;;;5075204;28;20549;-59
2021/10/29 06:39:08;;;;;;;13.10;6.43;;;11.40;1.00;;;;;;5074987;28;20260;-58
2021/10/29 06:41:35;;;;;;;9.07;5.90;;;11.30;1.00;;;;;;5074967;28;20231;-58
2021/10/29 06:44:17;;;;;;;11.33;6.03;;;11.30;1.00;;;;;;5074631;28;20719;-61
2021/10/29 06:46:48;;;;;;;8.33;6.13;;;11.30;1.00;;;;;;5074647;28;20314;-62
2021/10/29 06:49:18;;;;;;;9.00;5.70;;;11.30;1.00;;;;;;5075497;28;20209;-63
2021/10/29 07:00:06;;;;;;;7.57;6.10;;;11.20;1.00;;;;;;5074902;28;20208;-64
2021/10/29 07:41:12;;;;;;;12.47;7.43;;;11.40;1.00;;;;;;5073543;28;20627;-60
2021/10/29 07:43:45;;;;;;;10.37;7.20;;;11.50;1.00;;;;;;5073461;28;20205;-61
2021/10/29 07:46:12;;;;;;;11.93;6.97;;;11.50;1.00;;;;;;5073253;28;20224;-61
2021/10/29 07:48:40;;;;;;;8.60;5.77;;;11.60;1.00;;;;;;5073402;28;20201;-61
2021/10/29 07:51:07;;;;;;;10.73;7.10;;;11.60;1.00;;;;;;5073634;28;20570;-62
2021/10/29 07:53:34;;;;;;;13.17;6.90;;;11.70;1.00;;;;;;5073344;28;20214;-62
2021/10/29 07:56:02;;;;;;;9.97;6.67;;;11.80;1.00;;;;;;5073149;28;20826;-63
2021/10/29 07:58:30;;;;;;;12.37;6.60;;;11.90;1.00;;;;;;5073327;28;20198;-64
2021/10/29 08:00:56;;;;;;;11.80;6.37;;;12.00;1.00;;;;;;5073202;28;20207;-64
2021/10/29 08:03:23;;;;;;;11.37;6.23;;;12.10;1.00;;;;;;5072732;28;20239;-62
2021/10/29 08:05:51;;;;;;;7.60;6.00;;;12.10;1.00;;;;;;5073063;28;20607;-61
2021/10/29 08:08:19;;;;;;;8.77;6.40;;;12.20;1.00;;;;;;5073328;28;20246;-61
2021/10/29 08:10:47;;;;;;;9.33;6.30;;;12.30;1.00;;;;;;5073142;28;20216;-62
2021/10/29 08:13:14;;;;;;;10.03;6.53;;;12.30;1.00;;;;;;5072672;28;20887;-60
2021/10/29 08:15:42;;;;;;;11.37;6.50;;;12.30;1.00;;;;;;5072710;28;20211;-62
2021/10/29 08:18:10;;;;;;;10.00;6.90;;;12.40;1.00;;;;;;5073231;28;20254;-63
2021/10/29 08:20:37;;;;;;;11.73;6.93;;;12.40;1.00;;;;;;5073135;28;20266;-59
2021/10/29 08:23:08;;;;;;;9.20;6.43;;;12.50;1.00;;;;;;5072575;28;20724;-62
2021/10/29 08:25:35;;;;;;;10.07;6.63;;;12.50;1.00;;;;;;5072481;28;20261;-61
2021/10/29 08:28:01;;;;;;;9.40;6.53;;;12.60;1.00;;;;;;5072840;28;20228;-61
2021/10/29 08:30:28;;;;;;;9.47;6.93;;;12.60;1.00;;;;;;5072446;28;20208;-60
2021/10/29 08:32:55;;;;;;;9.20;6.73;;;12.60;1.00;;;;;;5072643;28;20228;-59
2021/10/29 08:35:22;;;;;;;10.63;6.67;;;12.60;1.00;;;;;;5072529;28;20213;-59
2021/10/29 08:37:51;;;;;;;10.30;7.00;;;12.70;1.00;;;;;;5072887;28;20199;-60
2021/10/29 08:40:20;;;;;;;11.60;7.30;;;12.70;1.00;;;;;;5072416;28;20207;-61
2021/10/29 08:42:48;;;;;;;13.10;7.53;;;12.60;1.00;;;;;;5072274;28;20242;-61
2021/10/29 08:45:15;;;;;;;9.40;6.77;;;12.60;1.00;;;;;;5072245;28;20237;-63
2021/10/29 08:47:43;;;;;;;10.67;7.30;;;12.60;1.00;;;;;;5071874;28;20596;-66
2021/10/29 08:50:13;;;;;;;10.60;6.83;;;12.60;1.00;;;;;;5072416;28;20205;-66
2021/10/29 08:52:41;;;;;;;10.63;7.23;;;12.50;1.00;;;;;;5072012;28;20252;-67
2021/10/29 08:55:08;;;;;;;11.40;6.97;;;12.50;1.00;;;;;;5071901;28;20210;-65
2021/10/29 08:57:37;;;;;;;11.27;7.00;;;12.50;1.00;;;;;;5072149;28;20207;-65
2021/10/29 09:00:09;;;;;;;8.27;6.57;;;12.50;1.00;;;;;;5072420;28;20207;-66
2021/10/29 09:02:56;;;;;;;12.20;7.00;;;12.60;1.00;;;;;;5071955;28;20224;-65
2021/10/29 09:05:26;;;;;;;13.07;7.13;;;12.60;1.00;;;;;;5071812;28;20681;-63
2021/10/29 09:08:07;;;;;;;11.23;7.20;;;12.60;1.00;;;;;;5071839;28;20257;-63
2021/10/29 09:10:56;;;;;;;13.07;7.37;;;12.60;1.00;;;;;;5072010;28;20225;-63
2021/10/29 09:32:54;;;;;;;9.40;6.60;;;13.40;1.00;;;;;;5051532;28;20306;-61
2021/10/29 09:35:23;;;;;;;9.63;6.33;;;13.40;1.00;;;;;;5051486;28;20575;-61
2021/10/29 09:37:58;;;;;;;7.60;6.13;;;13.50;1.00;;;;;;5051702;28;20206;-61
2021/10/29 09:40:25;;;;;;;9.37;5.67;;;13.50;1.00;;;;;;5052114;28;20209;-62
2021/10/29 09:42:53;;;;;;;8.80;5.87;;;13.60;1.00;;;;;;5051845;28;20232;-62
2021/10/29 09:45:26;;;;;;;11.73;6.47;;;13.60;1.00;;;;;;5051818;28;20674;-62
2021/10/29 09:48:09;;;;;;;8.50;5.60;;;13.70;1.00;;;;;;5052558;28;20233;-62
2021/10/29 09:50:46;;;;;;;10.57;5.70;;;13.70;1.00;;;;;;5051363;28;20213;-62
2021/10/29 09:53:23;;;;;;;9.93;5.30;;;13.90;1.00;;;;;;5052963;28;20681;-63
2021/10/29 09:55:55;;;;;;;7.90;5.33;;;14.00;1.00;;;;;;5071365;28;20216;-62
2021/10/29 09:58:25;;;;;;;10.17;5.67;;;14.10;1.00;;;;;;5071765;28;20208;-61
2021/10/29 10:00:54;;;;;;;8.00;5.33;;;14.10;1.00;;;;;;5071524;28;20201;-62
2021/10/29 10:03:22;;;;;;;8.77;5.90;;;14.20;1.00;;;;;;5072009;28;20240;-65
2021/10/29 10:05:52;;;;;;;7.43;5.30;;;14.30;1.00;;;;;;5072801;28;20212;-66
2021/10/29 10:08:21;;;;;;;8.07;5.43;;;14.30;1.00;;;;;;5071095;28;20221;-64
2021/10/29 10:10:50;;;;;;;11.73;5.03;;;14.40;1.00;;;;;;5071704;28;20208;-64
2021/10/29 10:13:18;;;;;;;9.47;6.43;;;14.50;1.00;;;;;;5071259;28;20315;-62
2021/10/29 10:15:50;;;;;;;7.47;5.50;;;14.60;1.00;;;;;;5071074;28;20209;-58
2021/10/29 10:18:19;;;;;;;8.23;5.37;;;14.60;1.00;;;;;;5071170;28;20201;-63
2021/10/29 10:20:46;;;;;;;8.90;5.67;;;14.60;1.00;;;;;;5071348;28;20209;-62
2021/10/29 10:23:17;;;;;;;8.23;5.93;;;14.60;1.00;;;;;;5070775;28;20211;-64
2021/10/29 10:26:07;;;;;;;9.20;5.40;;;14.70;1.00;;;;;;5071050;28;20232;-63
2021/10/29 10:28:44;;;;;;;7.30;4.90;;;14.80;1.00;;;;;;5071082;28;20316;-64
2021/10/29 10:40:28;;;;;;;7.23;5.00;;;15.10;1.00;;;;;;5071217;28;20789;-64
2021/10/29 10:43:17;;;;;;;7.63;5.00;;;15.20;1.00;;;;;;5070674;28;20224;-62
2021/10/29 10:45:53;;;;;;;10.03;5.77;;;15.30;1.00;;;;;;5070548;28;20205;-62
2021/10/29 10:48:24;;;;;;;7.73;5.10;;;15.30;1.00;;;;;;5071067;28;20289;-62
2021/10/29 10:50:57;;;;;;;9.27;5.47;;;15.40;1.00;;;;;;5071076;28;20201;-62
2021/10/29 10:53:39;;;;;;;8.23;5.00;;;15.40;1.00;;;;;;5071237;28;20225;-63
2021/10/29 10:56:23;;;;;;;6.30;4.27;;;15.40;1.00;;;;;;5070548;28;20201;-63
2021/10/29 10:59:09;;;;;;;7.83;5.20;;;15.50;1.00;;;;;;5070857;28;20209;-61
2021/10/29 11:07:26;;;;;;;8.67;5.43;;;15.50;1.00;;;;;;5065037;28;20231;-64
2021/10/29 11:10:05;;;;;;;9.10;4.93;;;15.40;1.00;;;;;;5070716;28;20693;-64
2021/10/29 11:13:11;;;;;;;6.13;4.80;;;15.50;1.00;;;;;;5072826;28;20732;-62
2021/10/29 11:15:39;;;;;;;9.87;5.10;;;15.50;1.00;;;;;;5068782;28;20286;-64
2021/10/29 11:18:28;;;;;;;9.33;4.73;;;15.40;1.00;;;;;;5074266;28;20205;-63
2021/10/29 11:21:05;;;;;;;6.77;4.13;;;15.50;1.00;;;;;;5074102;28;20205;-62
2021/10/29 11:23:35;;;;;;;7.13;4.67;;;15.70;1.00;;;;;;5074076;28;20204;-61
2021/10/29 11:26:04;;;;;;;9.23;4.90;;;15.90;1.00;;;;;;5073755;28;20247;-62
2021/10/29 11:28:33;;;;;;;7.17;4.50;;;16.10;1.00;;;;;;5074109;28;20229;-63
2021/10/29 11:31:02;;;;;;;5.97;4.40;;;16.20;1.00;;;;;;5073940;28;20205;-62
2021/10/29 11:33:29;;;;;;;6.97;4.37;;;16.20;1.00;;;;;;5073719;28;20209;-64
2021/10/29 11:35:59;;;;;;;5.83;4.00;;;16.30;1.00;;;;;;5073445;28;20258;-64
2021/10/29 11:38:27;;;;;;;5.30;4.00;;;16.40;1.00;;;;;;5073911;28;20197;-66
2021/10/29 11:40:56;;;;;;;8.90;3.97;;;16.40;1.00;;;;;;5073952;28;20213;-64
2021/10/29 11:43:25;;;;;;;6.10;4.03;;;16.50;1.00;;;;;;5073505;28;20282;-63
2021/10/29 11:45:52;;;;;;;9.87;4.43;;;16.50;1.00;;;;;;5073549;28;20201;-63
2021/10/29 11:48:19;;;;;;;7.03;4.00;;;16.60;1.00;;;;;;5073403;28;20217;-70
2021/10/29 11:50:46;;;;;;;6.93;3.73;;;16.70;1.00;;;;;;5073549;28;20216;-68
2021/10/29 11:53:16;;;;;;;4.70;3.63;;;16.60;1.00;;;;;;5073483;28;20228;-70
2021/10/29 11:55:47;;;;;;;7.77;3.60;;;16.70;1.00;;;;;;5073548;28;20209;-70
2021/10/29 11:58:20;;;;;;;5.87;3.30;;;16.80;1.00;;;;;;5073938;28;20228;-69
2021/10/29 12:00:56;;;;;;;6.93;4.50;;;16.90;1.00;;;;;;5073319;28;20208;-64
2021/10/29 12:06:20;;;;;;;4.83;3.27;;;17.00;1.00;;;;;;5073009;28;20661;-64
2021/10/29 12:08:46;;;;;;;5.23;3.37;;;16.90;1.00;;;;;;5073254;28;20673;-64
2021/10/29 12:11:19;;;;;;;4.73;2.93;;;16.80;1.00;;;;;;5073220;28;20215;-65
2021/10/29 12:13:47;;;;;;;6.90;3.80;;;16.60;1.00;;;;;;5073059;28;20699;-64
2021/10/29 12:16:16;;;;;;;8.57;3.70;;;16.60;1.00;;;;;;5073170;28;20235;-66
2021/10/29 12:18:54;;;;;;;7.13;3.13;;;16.60;1.00;;;;;;5073205;28;20208;-64
2021/10/29 12:21:23;;;;;;;4.90;3.57;;;16.70;1.00;;;;;;5073571;28;20239;-65
2021/10/29 12:23:52;;;;;;;4.40;3.20;;;16.90;1.00;;;;;;5072804;28;20254;-64
2021/10/29 12:26:21;;;;;;;5.07;3.20;;;17.00;1.00;;;;;;5072914;28;20201;-66
2021/10/29 12:28:52;;;;;;;5.07;3.27;;;17.10;1.00;;;;;;5072818;28;20232;-65
2021/10/29 12:31:31;;;;;;;4.67;3.30;;;17.10;1.00;;;;;;5073260;28;20255;-67
2021/10/29 12:34:15;;;;;;;5.67;3.37;;;17.00;1.00;;;;;;5073337;28;20342;-67
2021/10/29 12:53:33;;;;;;;7.43;3.10;;;16.80;1.00;;;;;;5072168;28;20239;-66
2021/10/29 12:59:13;;;;;;;4.20;3.20;;;16.60;1.00;;;;;;5072186;28;20195;-67
2021/10/29 13:01:51;;;;;;;4.73;3.20;;;16.50;1.00;;;;;;5072380;28;20220;-65
2021/10/29 13:04:19;;;;;;;5.70;2.90;;;16.60;1.00;;;;;;5071931;28;20667;-66
2021/10/29 13:06:48;;;;;;;6.97;3.00;;;16.70;1.00;;;;;;5071756;28;20559;-66
2021/10/29 13:09:17;;;;;;;5.40;3.10;;;16.70;1.00;;;;;;5072094;28;20282;-63
2021/10/29 13:11:52;;;;;;;5.33;3.00;;;16.60;1.00;;;;;;5071730;28;20283;-64
2021/10/29 13:14:24;;;;;;;4.23;3.13;;;16.60;1.00;;;;;;5071765;28;20662;-62
2021/10/29 13:16:53;;;;;;;10.20;3.20;;;16.50;1.00;;;;;;5071538;28;20243;-62
2021/10/29 13:19:30;;;;;;;8.07;3.17;;;16.50;1.00;;;;;;5072209;28;20205;-64
2021/10/29 13:27:50;;;;;;;10.93;3.50;;;16.50;1.00;;;;;;5071756;28;20200;-65
2021/10/29 13:36:03;;;;;;;4.43;3.10;;;16.50;1.00;;;;;;5070878;28;20704;-61
2021/10/29 13:52:31;;;;;;;7.23;3.37;;;16.60;1.00;;;;;;5071326;28;20303;-64
2021/10/29 13:55:06;;;;;;;5.03;3.20;;;16.60;1.00;;;;;;5071768;28;20201;-64
2021/10/29 14:03:20;;;;;;;4.57;3.30;;;16.60;1.00;;;;;;5070885;28;20227;-63
2021/10/29 14:17:06;;;;;;;6.80;3.47;;;16.40;1.00;;;;;;5071101;28;20250;-61
2021/10/29 14:30:56;;;;;;;4.20;3.20;;;16.10;1.00;;;;;;5070906;28;20741;-63
2021/10/29 14:33:26;;;;;;;8.10;3.50;;;16.00;1.00;;;;;;5071243;28;20221;-63
2021/10/29 14:35:55;;;;;;;6.67;3.47;;;16.00;1.00;;;;;;5071032;28;20208;-63
2021/10/29 14:38:32;;;;;;;8.13;3.90;;;16.00;1.00;;;;;;5070961;28;20201;-63
2021/10/29 14:41:04;;;;;;;6.03;3.70;;;16.00;1.00;;;;;;5071283;28;20407;-64
2021/10/29 14:43:35;;;;;;;8.17;3.73;;;16.00;1.00;;;;;;5070964;28;20220;-62
2021/10/29 14:46:09;;;;;;;6.40;3.40;;;16.00;1.00;;;;;;5071334;28;20235;-63
2021/10/29 14:48:44;;;;;;;4.30;3.60;;;16.00;1.00;;;;;;5075046;28;20567;-63
2021/10/29 14:51:32;;;;;;;5.13;3.43;;;16.00;1.00;;;;;;5075033;28;20203;-63
2021/10/29 15:16:11;;;;;;;4.47;3.43;;;15.70;1.00;;;;;;5074141;28;20200;-63
2021/10/29 15:24:34;;;;;;;4.63;3.27;;;15.70;1.00;;;;;;5074372;28;20246;-64
2021/10/29 15:27:10;;;;;;;4.17;3.70;;;15.50;1.00;;;;;;5074065;28;20200;-63
2021/10/29 15:29:50;;;;;;;9.07;4.07;;;15.50;1.00;;;;;;5074270;28;20225;-64
2021/10/29 15:43:31;;;;;;;5.03;3.17;;;15.20;1.00;;;;;;5074518;28;20628;-65
2021/10/29 15:46:05;;;;;;;7.07;4.50;;;15.20;1.00;;;;;;5073601;28;20215;-63
2021/10/29 15:48:41;;;;;;;5.63;3.37;;;15.10;1.00;;;;;;5074534;28;20689;-64
2021/10/29 15:51:07;;;;;;;5.90;3.90;;;15.10;1.00;;;;;;5074323;28;20232;-64
2021/10/29 15:53:34;;;;;;;9.27;3.90;;;15.10;1.00;;;;;;5075052;28;20216;-63
2021/10/29 15:56:09;;;;;;;5.23;3.67;;;15.10;1.00;;;;;;5074545;28;20205;-62
2021/10/29 15:58:41;;;;;;;6.57;3.67;;;15.10;1.00;;;;;;5074184;28;20254;-63
2021/10/29 16:01:14;;;;;;;5.50;3.43;;;15.00;1.00;;;;;;5074604;28;20668;-63
2021/10/29 16:03:51;;;;;;;4.63;2.90;;;15.00;1.00;;;;;;5074176;28;20213;-63
2021/10/29 16:17:15;;;;;;;7.03;3.40;;;14.80;1.00;;;;;;5073708;28;20207;-62
2021/10/29 16:19:44;;;;;;;5.63;3.30;;;14.80;1.00;;;;;;5073806;28;20201;-63
2021/10/29 16:22:18;;;;;;;7.53;3.77;;;14.80;1.00;;;;;;5073740;28;20225;-63
2021/10/29 16:24:53;;;;;;;6.87;3.80;;;14.80;1.00;;;;;;5073187;28;20243;-63
2021/10/29 16:27:20;;;;;;;6.43;4.13;;;14.70;1.00;;;;;;5073633;28;20790;-62
2021/10/29 16:29:50;;;;;;;5.87;4.07;;;14.60;1.00;;;;;;5073241;28;20320;-62
2021/10/29 16:32:24;;;;;;;6.43;3.90;;;14.60;1.00;;;;;;5073765;28;20229;-63
2021/10/29 16:34:50;;;;;;;5.43;4.07;;;14.50;1.00;;;;;;5073248;28;20295;-63